createdAt,value
2018-02-11T05:29:43.119Z,45.50
2018-02-11T05:44:28.195Z,56.72
2018-02-11T05:47:04.028Z,54.65
2018-02-11T05:49:36.875Z,53.58
2018-02-11T05:52:08.248Z,50.20
2018-02-11T05:54:43.278Z,44.53
2018-02-11T05:57:20.683Z,53.90
2018-02-11T06:02:36.650Z,52.62
2018-02-11T06:05:08.338Z,67.10
2018-02-11T06:07:42.605Z,57.38
2018-02-11T06:10:20.183Z,57.10
2018-02-11T06:15:32.317Z,48.87
2018-02-11T06:18:08.427Z,50.65
2018-02-11T06:20:39.364Z,50.58
2018-02-11T06:23:10.658Z,51.50
2018-02-11T06:25:41.357Z,59.17
2018-02-11T06:28:14.139Z,59.38
2018-02-11T06:30:46.394Z,65.95
2018-02-11T06:33:16.751Z,55.03
2018-02-11T06:35:48.954Z,61.83
2018-02-11T06:38:19.710Z,48.15
2018-02-11T06:40:51.782Z,45.17
2018-02-11T06:43:21.898Z,58.53
2018-02-11T06:45:51.425Z,51.55
2018-02-11T06:48:20.958Z,51.40
2018-02-11T06:50:50.926Z,50.75
2018-02-11T06:53:53.032Z,49.63
2018-02-11T06:56:34.567Z,43.95
2018-02-11T06:59:30.131Z,64.15
2018-02-11T07:02:10.812Z,53.40
2018-02-11T07:07:37.856Z,44.22
2018-02-11T07:10:08.130Z,44.13
2018-02-11T07:12:37.516Z,47.97
2018-02-11T07:15:06.597Z,46.60
2018-02-11T07:17:35.446Z,44.20
2018-02-11T07:20:04.943Z,64.03
2018-02-11T07:22:34.038Z,49.22
2018-02-11T07:25:03.617Z,48.33
2018-02-11T07:27:36.962Z,51.85
2018-02-11T07:30:06.279Z,46.72
2018-02-11T07:32:35.374Z,50.95
2018-02-11T07:35:04.902Z,56.97
2018-02-11T07:37:34.716Z,40.90
2018-02-11T07:40:03.698Z,55.05
2018-02-11T07:42:32.725Z,43.78
2018-02-11T07:45:02.170Z,43.30
2018-02-11T07:47:31.169Z,46.53
2018-02-11T07:50:00.063Z,49.08
2018-02-11T07:52:29.606Z,49.08
2018-02-11T07:54:58.606Z,46.85
2018-02-11T07:57:27.305Z,46.77
2018-02-11T07:59:57.013Z,44.60
2018-02-11T08:02:26.834Z,51.33
2018-02-11T08:04:56.687Z,47.30
2018-02-11T08:07:25.479Z,50.50
2018-02-11T08:09:59.258Z,44.40
2018-02-11T08:12:29.539Z,46.93
2018-02-11T08:17:42.800Z,51.83
2018-02-11T08:20:11.678Z,58.00
2018-02-11T08:22:40.148Z,44.77
2018-02-11T08:25:08.662Z,49.77
2018-02-11T08:27:37.153Z,44.70
2018-02-11T08:30:06.830Z,54.87
2018-02-11T08:32:35.601Z,51.30
2018-02-11T08:35:04.424Z,47.03
2018-02-11T08:37:33.283Z,44.50
2018-02-11T08:40:01.801Z,41.60
2018-02-11T08:42:31.070Z,49.53
2018-02-11T08:44:59.771Z,49.30
2018-02-11T08:47:28.643Z,43.67
2018-02-11T08:49:57.309Z,41.77
2018-02-11T08:52:25.756Z,44.13
2018-02-11T09:01:54.755Z,35.27
2018-02-11T09:04:23.759Z,31.33
2018-02-11T09:06:52.549Z,37.07
2018-02-11T09:09:22.211Z,30.87
2018-02-11T09:11:51.637Z,34.73
2018-02-11T09:14:24.348Z,33.07
2018-02-11T09:16:52.923Z,37.50
2018-02-11T09:19:21.662Z,35.33
2018-02-11T09:21:51.234Z,39.33
2018-02-11T09:24:21.057Z,28.83
2018-02-11T09:30:22.775Z,28.70
2018-02-11T11:11:55.328Z,21.00
2018-02-11T11:28:54.173Z,23.60
2018-02-11T11:48:27.778Z,25.10
2018-02-11T11:51:29.786Z,26.13
2018-02-11T11:54:03.300Z,20.27
2018-02-11T11:56:33.237Z,25.37
2018-02-11T11:59:10.130Z,25.20
2018-02-11T12:01:49.933Z,25.67
2018-02-11T13:10:51.262Z,26.93
2018-02-11T13:13:20.102Z,19.90
2018-02-11T13:15:48.928Z,22.03
2018-02-11T13:18:17.203Z,21.60
2018-02-11T13:20:45.645Z,21.97
2018-02-11T14:14:58.978Z,21.53
2018-02-11T14:17:28.197Z,21.83
2018-02-11T14:19:56.611Z,20.77
2018-02-11T14:22:25.664Z,23.47
2018-02-11T14:24:54.238Z,20.87
2018-02-11T14:27:22.845Z,13.73
2018-02-11T14:29:54.399Z,15.47
2018-02-11T14:32:23.561Z,14.70
2018-02-11T14:34:52.221Z,12.47
2018-02-11T14:37:21.762Z,15.70
2018-02-11T14:39:51.938Z,15.93
2018-02-11T14:42:20.422Z,10.90
2018-02-11T14:44:49.637Z,14.50
2018-02-11T14:47:18.853Z,12.40
2018-02-11T14:49:47.353Z,15.20
2018-02-11T14:52:15.747Z,13.90
2018-02-11T14:54:44.118Z,12.90
2018-02-11T14:57:12.632Z,13.40
2018-02-11T14:59:41.185Z,15.10
2018-02-11T15:02:09.633Z,14.67
2018-02-11T15:04:38.353Z,13.90
2018-02-11T15:07:07.039Z,16.95
2018-02-11T15:09:36.604Z,12.48
2018-02-11T15:12:05.293Z,16.20
2018-02-11T15:14:34.070Z,13.00
2018-02-11T15:17:02.824Z,14.82
2018-02-11T15:19:31.528Z,15.55
2018-02-11T15:22:00.340Z,16.05
2018-02-11T15:24:29.055Z,17.27
2018-02-11T15:26:57.962Z,18.48
2018-02-11T15:29:27.508Z,15.40
2018-02-11T15:31:56.225Z,17.10
2018-02-11T15:34:24.933Z,13.20
2018-02-11T15:36:53.626Z,18.45
2018-02-11T15:39:23.135Z,20.05
2018-02-11T15:41:52.627Z,22.17
2018-02-11T15:44:22.073Z,20.12
2018-02-11T15:46:50.977Z,19.87
2018-02-11T15:49:19.649Z,18.70
2018-02-11T15:51:48.364Z,22.05
2018-02-11T15:54:17.059Z,17.62
2018-02-11T15:56:45.764Z,19.05
2018-02-11T15:59:14.480Z,16.48
2018-02-11T16:01:43.235Z,16.83
2018-02-11T16:04:12.130Z,13.65
2018-02-11T16:06:41.582Z,18.77
2018-02-11T16:09:10.306Z,17.95
2018-02-11T16:11:38.677Z,16.15
2018-02-11T16:14:07.374Z,15.45
2018-02-11T16:16:36.324Z,15.95
2018-02-11T16:19:05.619Z,16.15
2018-02-11T16:21:35.226Z,17.20
2018-02-11T16:24:04.746Z,20.02
2018-02-11T16:26:33.629Z,18.58
2018-02-11T16:29:02.466Z,22.52
2018-02-11T16:31:32.199Z,17.80
2018-02-11T16:36:37.613Z,25.23
2018-02-11T16:39:07.151Z,21.90
2018-02-11T16:41:40.648Z,20.98
2018-02-11T16:44:19.352Z,20.12
2018-02-11T16:46:54.425Z,19.62
2018-02-11T16:49:28.401Z,24.12
2018-02-11T16:51:59.482Z,23.55
2018-02-11T16:54:29.245Z,24.20
2018-02-11T16:56:58.552Z,26.25
2018-02-11T16:59:27.757Z,24.33
2018-02-11T17:01:58.172Z,21.52
2018-02-11T17:04:28.582Z,19.80
2018-02-11T17:06:58.387Z,21.00
2018-02-11T17:09:27.837Z,26.48
2018-02-11T17:11:58.142Z,24.58
2018-02-11T17:14:28.569Z,25.45
2018-02-11T17:16:57.855Z,21.42
2018-02-11T17:19:28.031Z,18.30
2018-02-11T17:21:58.087Z,20.50
2018-02-11T17:24:28.024Z,21.57
2018-02-11T17:26:57.544Z,18.95
2018-02-11T17:29:26.746Z,20.83
2018-02-11T17:31:56.787Z,16.60
2018-02-11T17:34:25.852Z,20.05
2018-02-11T17:36:54.838Z,27.23
2018-02-11T17:39:23.757Z,29.08
2018-02-11T17:41:52.836Z,35.78
2018-02-11T17:44:21.570Z,42.85
2018-02-11T17:46:50.310Z,38.30
2018-02-11T17:49:19.041Z,44.22
2018-02-11T17:51:48.170Z,35.33
2018-02-11T17:54:17.097Z,30.83
2018-02-11T17:56:45.789Z,25.98
2018-02-11T17:59:14.510Z,34.08
2018-02-11T18:01:43.460Z,31.73
2018-02-11T18:04:12.196Z,41.88
2018-02-11T18:06:40.904Z,34.35
2018-02-11T18:09:10.345Z,33.15
2018-02-11T18:11:39.046Z,29.55
2018-02-11T18:14:07.847Z,29.52
2018-02-11T18:16:36.914Z,24.63
2018-02-11T18:19:05.715Z,22.20
2018-02-11T18:21:34.375Z,19.90
2018-02-11T18:24:03.042Z,22.48
2018-02-11T18:26:32.511Z,24.98
2018-02-11T18:29:01.167Z,23.30
2018-02-11T18:31:29.819Z,20.65
2018-02-11T18:33:59.064Z,21.50
2018-02-11T18:36:27.708Z,20.48
2018-02-11T18:38:57.153Z,18.20
2018-02-11T18:41:25.809Z,18.80
2018-02-11T18:43:54.485Z,25.58
2018-02-11T18:46:24.208Z,18.10
2018-02-11T18:48:52.930Z,19.75
2018-02-11T18:51:21.799Z,16.75
2018-02-11T18:53:50.687Z,17.55
2018-02-11T18:56:19.412Z,16.52
2018-02-11T18:58:48.149Z,16.98
2018-02-11T19:01:16.976Z,18.17
2018-02-11T19:03:45.685Z,19.20
2018-02-11T19:06:14.391Z,15.75
2018-02-11T19:08:43.076Z,16.73
2018-02-11T19:11:11.792Z,23.98
2018-02-11T19:13:43.103Z,16.87
2018-02-11T19:16:13.468Z,19.40
2018-02-11T19:18:42.421Z,19.50
2018-02-11T19:21:11.120Z,19.17
2018-02-11T19:23:40.668Z,15.10
2018-02-11T19:26:09.400Z,19.67
2018-02-11T19:28:38.090Z,18.98
2018-02-11T19:31:06.765Z,18.90
2018-02-11T19:33:36.229Z,19.90
2018-02-11T19:36:05.682Z,18.77
2018-02-11T19:38:34.360Z,20.65
2018-02-11T19:41:03.071Z,20.02
2018-02-11T19:43:31.801Z,23.92
2018-02-11T19:46:00.743Z,19.65
2018-02-11T19:48:29.668Z,24.98
2018-02-11T19:50:58.394Z,25.30
2018-02-11T19:53:27.105Z,19.35
2018-02-11T19:55:55.789Z,17.30
2018-02-11T19:58:24.493Z,18.00
2018-02-11T20:00:53.224Z,15.55
2018-02-11T20:03:22.660Z,19.87
2018-02-11T20:05:51.342Z,23.65
2018-02-11T20:08:20.041Z,16.98
2018-02-11T20:10:48.728Z,24.40
2018-02-11T20:13:17.414Z,22.85
2018-02-11T20:15:46.129Z,20.48
2018-02-11T20:18:15.055Z,20.83
2018-02-11T20:20:43.718Z,35.63
2018-02-11T20:23:13.193Z,28.83
2018-02-11T20:25:41.993Z,34.15
2018-02-11T20:28:10.649Z,36.08
2018-02-11T20:30:39.308Z,39.47
2018-02-11T20:33:08.967Z,44.97
2018-02-11T20:35:37.633Z,46.92
2018-02-11T20:38:06.298Z,39.13
2018-02-11T20:40:34.996Z,47.10
2018-02-11T20:43:03.720Z,47.15
2018-02-11T20:45:32.416Z,42.90
2018-02-11T20:48:01.104Z,39.05
2018-02-11T20:50:29.782Z,38.88
2018-02-11T20:52:58.501Z,36.85
2018-02-11T20:55:27.952Z,31.77
2018-02-11T20:57:56.648Z,36.50
2018-02-11T21:00:25.393Z,33.65
2018-02-11T21:02:54.132Z,40.72
2018-02-11T21:05:23.775Z,29.02
2018-02-11T21:07:56.861Z,36.88
2018-02-11T21:10:26.297Z,33.45
2018-02-11T21:12:55.025Z,42.40
2018-02-11T21:15:23.716Z,47.45
2018-02-11T21:17:52.377Z,42.88
2018-02-11T21:20:23.642Z,41.33
2018-02-11T21:22:52.315Z,54.28
2018-02-11T21:25:20.970Z,61.37
2018-02-11T21:27:49.653Z,43.53
2018-02-11T21:30:19.088Z,57.53
2018-02-11T21:32:47.752Z,57.53
2018-02-11T21:35:16.473Z,46.42
2018-02-11T21:37:45.180Z,40.85
2018-02-11T21:40:13.837Z,41.75
2018-02-11T21:42:42.542Z,40.60
2018-02-11T21:45:11.226Z,44.33
2018-02-11T21:47:39.881Z,40.58
2018-02-11T21:50:08.567Z,40.80
2018-02-11T21:52:37.228Z,42.85
2018-02-11T21:55:06.652Z,36.85
2018-02-11T21:57:35.318Z,34.72
2018-02-11T22:00:04.432Z,45.17
2018-02-11T22:02:33.103Z,50.42
2018-02-11T22:05:02.542Z,35.17
2018-02-11T22:07:31.230Z,38.30
2018-02-11T22:09:59.904Z,34.50
2018-02-11T22:12:28.563Z,41.33
2018-02-11T22:14:57.255Z,31.67
2018-02-11T22:17:25.914Z,33.00
2018-02-11T22:19:54.566Z,35.72
2018-02-11T22:22:23.260Z,35.03
2018-02-11T22:24:51.940Z,34.63
2018-02-11T22:27:20.588Z,36.67
2018-02-11T22:29:49.261Z,34.63
2018-02-11T22:32:17.914Z,37.95
2018-02-11T22:34:46.612Z,35.13
2018-02-11T22:37:15.276Z,33.03
2018-02-11T22:39:43.964Z,36.97
2018-02-11T22:42:12.641Z,33.30
2018-02-11T22:44:41.298Z,31.08
2018-02-11T22:47:10.716Z,37.55
2018-02-11T22:49:39.399Z,24.48
2018-02-11T22:52:08.068Z,28.77
2018-02-11T22:54:37.489Z,26.20
2018-02-11T22:57:06.173Z,30.92
2018-02-11T22:59:35.608Z,21.95
2018-02-11T23:02:04.259Z,25.58
2018-02-11T23:04:33.694Z,38.75
2018-02-11T23:07:02.356Z,30.48
2018-02-11T23:09:31.789Z,27.87
2018-02-11T23:12:00.473Z,27.08
2018-02-11T23:14:29.151Z,32.22
2018-02-11T23:16:57.844Z,27.27
2018-02-11T23:19:25.889Z,28.65
2018-02-11T23:21:54.552Z,27.85
2018-02-11T23:24:23.212Z,30.67
2018-02-11T23:26:51.930Z,32.00
2018-02-11T23:29:20.620Z,34.20
2018-02-11T23:31:49.491Z,30.80
2018-02-11T23:34:17.972Z,27.00
2018-02-11T23:36:46.821Z,32.63
2018-02-11T23:39:15.541Z,31.00
2018-02-11T23:41:44.327Z,30.27
2018-02-11T23:44:13.004Z,26.05
2018-02-11T23:46:41.683Z,24.90
2018-02-11T23:49:10.393Z,31.37
2018-02-11T23:51:39.089Z,22.85
2018-02-11T23:54:07.774Z,26.98
2018-02-11T23:56:36.461Z,24.98
2018-02-11T23:59:05.183Z,28.15
